Time;durP1;ratioP1;P1;durP2;ratioP2;P2;SDS_P1;SDS_P2;PMS_P1;PMS_P2;Temp;Humidity;BMP_temperature;BMP_pressure;BME280_temperature;BME280_humidity;BME280_pressure;Samples;Min_cycle;Max_cycle;Signal;HPM_P1;HPM_P2
2023/06/08 00:00:20;;;;;;;15.87;14.57;;;;;;;15.15;nan;99288.88;5054500;28;20193;-78
2023/06/08 00:02:48;;;;;;;15.70;14.50;;;;;;;15.11;nan;99294.00;5064697;28;20238;-78
2023/06/08 00:05:16;;;;;;;15.73;14.50;;;;;;;15.10;nan;99289.66;5071875;28;20404;-78
2023/06/08 00:07:43;;;;;;;16.00;14.70;;;;;;;15.08;nan;99290.97;5050856;28;20549;-78
2023/06/08 00:10:10;;;;;;;15.40;14.10;;;;;;;15.04;nan;99284.47;5061961;28;20229;-78
2023/06/08 00:12:37;;;;;;;15.80;14.50;;;;;;;15.02;nan;99292.00;5071464;28;20609;-79
2023/06/08 00:15:05;;;;;;;15.40;14.10;;;;;;;14.96;nan;99291.16;5069670;28;20185;-78
2023/06/08 00:17:32;;;;;;;15.30;13.90;;;;;;;14.92;nan;99290.03;5068073;28;20193;-78
2023/06/08 00:20:07;;;;;;;14.63;13.53;;;;;;;14.88;nan;99292.41;5070242;28;20675;-78
2023/06/08 00:22:34;;;;;;;15.70;14.40;;;;;;;14.86;nan;99297.25;5058832;28;20676;-79
2023/06/08 00:25:02;;;;;;;15.80;14.40;;;;;;;14.81;nan;99294.50;5066328;28;20561;-78
2023/06/08 00:27:29;;;;;;;14.83;13.63;;;;;;;14.75;nan;99300.91;5053249;28;20535;-78
2023/06/08 00:29:56;;;;;;;14.50;13.40;;;;;;;14.71;nan;99291.72;5065283;28;20201;-78
2023/06/08 00:32:23;;;;;;;14.93;13.67;;;;;;;14.69;nan;99288.47;5067798;28;20193;-78
2023/06/08 00:34:50;;;;;;;14.90;13.80;;;;;;;14.67;nan;99290.59;5057348;28;20201;-78
2023/06/08 00:37:17;;;;;;;14.80;13.33;;;;;;;14.60;nan;99286.47;5057108;28;20201;-78
2023/06/08 00:39:44;;;;;;;14.07;12.97;;;;;;;14.56;nan;99288.06;5057154;28;20199;-79
2023/06/08 00:42:10;;;;;;;14.43;13.33;;;;;;;14.59;nan;99293.75;5065302;28;20195;-78
2023/06/08 00:44:37;;;;;;;14.50;13.30;;;;;;;14.53;nan;99292.06;5053747;28;20588;-78
2023/06/08 00:47:04;;;;;;;14.20;12.90;;;;;;;14.54;nan;99282.91;5059767;28;20551;-78
2023/06/08 00:49:32;;;;;;;14.27;13.17;;;;;;;14.54;nan;99291.00;5053154;28;20672;-78
2023/06/08 00:52:02;;;;;;;14.87;13.57;;;;;;;14.50;nan;99282.59;5055909;28;20182;-78
2023/06/08 00:54:30;;;;;;;14.77;13.57;;;;;;;14.45;nan;99279.03;5055819;28;20290;-78
2023/06/08 00:57:00;;;;;;;13.30;12.20;;;;;;;14.41;nan;99283.31;5064085;28;20189;-78
2023/06/08 00:59:29;;;;;;;13.97;12.87;;;;;;;14.38;nan;99279.22;5062163;28;20296;-78
2023/06/08 01:01:59;;;;;;;14.00;12.90;;;;;;;14.36;nan;99281.38;5056024;28;20189;-78
2023/06/08 01:04:26;;;;;;;14.43;13.27;;;;;;;14.33;nan;99273.75;5073405;28;20216;-79
2023/06/08 01:07:04;;;;;;;13.33;12.33;;;;;;;14.33;nan;99276.44;5069958;28;20609;-79
2023/06/08 01:09:51;;;;;;;15.17;13.83;;;;;;;14.34;nan;99275.38;5056850;28;20228;-79
2023/06/08 01:12:35;;;;;;;14.60;13.30;;;;;;;14.36;nan;99275.16;5060188;28;20190;-79
2023/06/08 01:15:15;;;;;;;13.37;12.37;;;;;;;14.29;nan;99269.13;5058779;28;20207;-79
2023/06/08 01:17:52;;;;;;;13.80;12.70;;;;;;;14.21;nan;99273.06;5039246;28;20182;-80
2023/06/08 01:20:34;;;;;;;13.63;12.57;;;;;;;14.17;nan;99269.25;5039170;28;20664;-81
2023/06/08 01:23:10;;;;;;;12.80;11.80;;;;;;;14.11;nan;99270.25;5056442;28;20277;-78
2023/06/08 01:25:39;;;;;;;13.37;12.37;;;;;;;14.06;nan;99272.88;5066488;28;20197;-79
2023/06/08 01:28:12;;;;;;;13.23;12.10;;;;;;;14.00;nan;99277.38;5071349;28;20189;-79
2023/06/08 01:30:40;;;;;;;13.80;12.70;;;;;;;14.02;nan;99279.84;5064706;28;20198;-79
2023/06/08 01:33:12;;;;;;;12.67;11.73;;;;;;;14.00;nan;99279.25;5040358;28;20257;-79
2023/06/08 01:35:39;;;;;;;13.47;12.37;;;;;;;13.97;nan;99274.38;5065493;28;20592;-79
2023/06/08 01:38:23;;;;;;;14.20;13.03;;;;;;;14.04;nan;99272.34;5054838;28;20284;-79
2023/06/08 01:40:54;;;;;;;13.67;12.57;;;;;;;14.00;nan;99269.31;5069773;28;20403;-79
2023/06/08 01:43:23;;;;;;;12.83;11.93;;;;;;;13.98;nan;99260.69;5056885;28;20291;-78
2023/06/08 01:45:52;;;;;;;12.33;11.27;;;;;;;13.94;nan;99264.13;5056720;28;20728;-79
2023/06/08 01:48:19;;;;;;;13.83;12.73;;;;;;;13.92;nan;99272.44;5066915;28;20571;-78
2023/06/08 01:50:47;;;;;;;14.50;13.33;;;;;;;13.91;nan;99259.22;5064999;28;20199;-78
2023/06/08 01:53:16;;;;;;;13.07;11.97;;;;;;;13.85;nan;99261.06;5054386;28;20236;-78
2023/06/08 01:55:43;;;;;;;13.43;12.40;;;;;;;13.82;nan;99260.72;5063252;28;20193;-79
2023/06/08 01:58:09;;;;;;;13.30;12.10;;;;;;;13.76;nan;99257.16;5065615;28;20664;-78
2023/06/08 02:00:36;;;;;;;12.80;11.80;;;;;;;13.74;nan;99261.97;5052727;28;20204;-77
2023/06/08 02:03:03;;;;;;;13.27;12.17;;;;;;;13.71;nan;99265.19;5053313;28;20280;-78
2023/06/08 02:05:31;;;;;;;13.30;12.30;;;;;;;13.70;nan;99266.22;5042963;28;20295;-78
2023/06/08 02:07:59;;;;;;;12.60;11.70;;;;;;;13.64;nan;99265.34;5054418;28;20228;-78
2023/06/08 02:10:26;;;;;;;12.50;11.50;;;;;;;13.62;nan;99266.66;5063523;28;20201;-78
2023/06/08 02:12:53;;;;;;;11.93;10.93;;;;;;;13.60;nan;99264.22;5056573;28;20251;-78
2023/06/08 02:15:20;;;;;;;11.70;10.80;;;;;;;13.57;nan;99264.72;5052455;28;20786;-78
2023/06/08 02:17:47;;;;;;;11.43;10.63;;;;;;;13.53;nan;99268.16;5053288;28;20618;-78
2023/06/08 02:20:14;;;;;;;11.03;10.13;;;;;;;13.54;nan;99269.75;5052779;28;20729;-78
2023/06/08 02:22:41;;;;;;;11.47;10.67;;;;;;;13.48;nan;99266.19;5055253;28;20193;-78
2023/06/08 02:25:11;;;;;;;10.97;10.17;;;;;;;13.48;nan;99268.88;5062559;28;20189;-78
2023/06/08 02:27:38;;;;;;;11.07;10.27;;;;;;;13.46;nan;99252.16;5059990;28;20193;-78
2023/06/08 02:30:07;;;;;;;11.57;10.67;;;;;;;13.45;nan;99258.59;5058354;28;20201;-78
2023/06/08 02:32:34;;;;;;;11.53;10.63;;;;;;;13.46;nan;99264.81;5077115;28;20193;-80
2023/06/08 02:35:03;;;;;;;11.77;10.90;;;;;;;13.43;nan;99254.53;5070424;28;20239;-80
2023/06/08 02:37:35;;;;;;;11.30;10.40;;;;;;;13.38;nan;99259.84;5059616;28;20259;-79
2023/06/08 02:40:06;;;;;;;12.03;11.03;;;;;;;13.36;nan;99256.56;5059139;28;20265;-80
2023/06/08 02:42:38;;;;;;;11.90;10.90;;;;;;;13.37;nan;99260.91;5059719;28;20189;-80
2023/06/08 02:45:07;;;;;;;12.57;11.57;;;;;;;13.33;nan;99255.19;5059403;28;20679;-80
2023/06/08 02:47:35;;;;;;;11.90;11.00;;;;;;;13.38;nan;99267.91;5056389;28;20194;-78
2023/06/08 02:50:02;;;;;;;12.40;11.30;;;;;;;13.37;nan;99269.78;5057753;28;20213;-79
2023/06/08 02:52:30;;;;;;;12.03;11.13;;;;;;;13.35;nan;99263.81;5056417;28;20193;-81
2023/06/08 02:54:57;;;;;;;12.67;11.67;;;;;;;13.41;nan;99265.53;5057576;28;20185;-79
2023/06/08 02:57:23;;;;;;;13.30;12.30;;;;;;;13.47;nan;99256.50;5056339;28;20232;-78
2023/06/08 02:59:55;;;;;;;11.87;10.87;;;;;;;13.49;nan;99267.00;5056688;28;20212;-79
2023/06/08 03:02:22;;;;;;;12.37;11.47;;;;;;;13.55;nan;99257.94;5056829;28;20216;-79
2023/06/08 03:04:52;;;;;;;11.67;10.73;;;;;;;13.55;nan;99257.94;5040151;28;20265;-80
2023/06/08 03:07:19;;;;;;;11.80;10.90;;;;;;;13.63;nan;99261.00;5040145;28;20680;-80
2023/06/08 03:09:54;;;;;;;12.27;11.23;;;;;;;13.66;nan;99265.09;5040935;28;20232;-81
2023/06/08 03:12:22;;;;;;;11.67;10.87;;;;;;;13.72;nan;99247.16;5056452;28;20191;-81
2023/06/08 03:14:49;;;;;;;11.97;10.97;;;;;;;13.79;nan;99253.16;5057817;28;20186;-80
2023/06/08 03:17:19;;;;;;;11.10;10.30;;;;;;;13.86;nan;99261.84;5058636;28;20193;-81
2023/06/08 03:19:47;;;;;;;11.37;10.47;;;;;;;13.91;nan;99254.66;5056461;28;20559;-80
2023/06/08 03:22:19;;;;;;;11.07;10.17;;;;;;;13.99;nan;99258.81;5040245;28;20186;-79
2023/06/08 03:25:00;;;;;;;10.23;9.43;;;;;;;14.06;nan;99256.72;5026826;28;20182;-80
2023/06/08 03:27:28;;;;;;;10.80;9.90;;;;;;;14.20;nan;99260.66;5056669;28;20190;-80
2023/06/08 03:29:57;;;;;;;10.17;9.37;;;;;;;14.27;nan;99260.47;5055971;28;20211;-80
2023/06/08 03:32:32;;;;;;;10.00;9.20;;;;;;;14.36;nan;99256.31;5056439;28;20736;-81
2023/06/08 03:34:59;;;;;;;9.87;9.07;;;;;;;14.44;nan;99258.53;5055248;28;20194;-80
2023/06/08 03:37:26;;;;;;;9.70;9.00;;;;;;;14.51;nan;99261.88;5055555;28;20198;-80
2023/06/08 03:39:53;;;;;;;8.73;8.13;;;;;;;14.60;nan;99263.03;5055992;28;20243;-78
2023/06/08 03:42:20;;;;;;;10.10;9.20;;;;;;;14.69;nan;99261.50;5055508;28;20193;-78
2023/06/08 03:44:52;;;;;;;9.17;8.47;;;;;;;14.78;nan;99256.47;5055811;28;20210;-78
2023/06/08 03:47:21;;;;;;;8.67;7.97;;;;;;;14.86;nan;99255.97;5055809;28;20220;-78
2023/06/08 03:49:49;;;;;;;9.03;8.33;;;;;;;14.94;nan;99256.31;5054933;28;20580;-78
2023/06/08 03:52:16;;;;;;;9.23;8.53;;;;;;;14.96;nan;99258.78;5055161;28;20198;-79
2023/06/08 03:54:44;;;;;;;8.83;8.23;;;;;;;15.08;nan;99263.97;5055170;28;20189;-78
2023/06/08 03:57:12;;;;;;;8.27;7.57;;;;;;;15.17;nan;99254.34;5055107;28;20571;-79
2023/06/08 03:59:39;;;;;;;8.73;8.07;;;;;;;15.28;nan;99256.88;5056041;28;20182;-78
2023/06/08 04:02:06;;;;;;;8.33;7.73;;;;;;;15.46;nan;99252.13;5038204;28;20192;-78
2023/06/08 04:04:34;;;;;;;8.70;8.00;;;;;;;15.80;nan;99267.75;5043992;28;20208;-78
2023/06/08 04:07:02;;;;;;;8.13;7.43;;;;;;;16.41;nan;99259.09;5035801;28;20292;-79
2023/06/08 04:09:29;;;;;;;7.80;7.20;;;;;;;17.11;nan;99266.53;5055826;28;20229;-79
2023/06/08 04:11:57;;;;;;;8.17;7.47;;;;;;;17.89;nan;99262.38;5056657;28;20197;-80
2023/06/08 04:14:25;;;;;;;7.17;6.57;;;;;;;18.39;nan;99260.53;5055017;28;20204;-79
2023/06/08 04:16:53;;;;;;;7.17;6.67;;;;;;;18.56;nan;99260.19;5069098;28;20275;-79
2023/06/08 04:19:21;;;;;;;7.00;6.37;;;;;;;18.55;nan;99259.38;5063435;28;20204;-79
2023/06/08 04:21:49;;;;;;;6.87;6.27;;;;;;;18.54;nan;99265.09;5061385;28;20701;-79
2023/06/08 04:24:16;;;;;;;6.93;6.40;;;;;;;18.48;nan;99256.94;5063643;28;20190;-80
2023/06/08 04:26:45;;;;;;;6.80;6.30;;;;;;;18.29;nan;99247.81;5055259;28;20202;-79
2023/06/08 04:29:12;;;;;;;6.93;6.33;;;;;;;18.26;nan;99255.72;5035937;28;20720;-79
2023/06/08 04:31:39;;;;;;;6.83;6.33;;;;;;;18.76;nan;99251.91;5062947;28;20197;-80
2023/06/08 04:34:08;;;;;;;6.10;5.70;;;;;;;19.60;nan;99253.41;5060664;28;20682;-80
2023/06/08 04:36:35;;;;;;;6.17;5.67;;;;;;;20.19;nan;99251.09;5063853;28;20241;-79
2023/06/08 04:39:02;;;;;;;6.77;6.17;;;;;;;20.39;nan;99252.75;5061078;28;20194;-79
2023/06/08 04:41:33;;;;;;;6.17;5.77;;;;;;;20.29;nan;99255.59;5063729;28;20538;-79
2023/06/08 04:44:03;;;;;;;6.57;6.07;;;;;;;20.06;nan;99256.44;5069948;28;20207;-79
2023/06/08 04:46:33;;;;;;;6.20;5.73;;;;;;;19.78;nan;99250.75;5063038;28;20192;-79
2023/06/08 04:49:00;;;;;;;6.27;5.70;;;;;;;19.56;nan;99241.47;5053566;28;20215;-79
2023/06/08 04:51:29;;;;;;;6.60;6.00;;;;;;;19.41;nan;99247.84;5053436;28;20615;-79
2023/06/08 04:53:57;;;;;;;6.20;5.70;;;;;;;19.30;nan;99254.47;5056689;28;20201;-79
2023/06/08 04:56:28;;;;;;;6.20;5.70;;;;;;;19.27;nan;99255.84;5051361;28;20204;-79
2023/06/08 04:58:57;;;;;;;6.20;5.77;;;;;;;19.38;nan;99261.19;5059019;28;20185;-79
2023/06/08 05:01:24;;;;;;;6.27;5.77;;;;;;;19.46;nan;99260.59;5065076;28;20212;-79
2023/06/08 05:03:51;;;;;;;7.00;6.30;;;;;;;19.47;nan;99263.03;5061376;28;20200;-81
2023/06/08 05:06:18;;;;;;;6.80;6.20;;;;;;;19.55;nan;99269.78;5062448;28;20188;-79
2023/06/08 05:08:45;;;;;;;6.67;6.07;;;;;;;19.65;nan;99262.31;5057134;28;20325;-80
2023/06/08 05:11:13;;;;;;;6.27;5.83;;;;;;;19.80;nan;99269.50;5064979;28;20206;-79
2023/06/08 05:13:39;;;;;;;6.10;5.70;;;;;;;19.85;nan;99263.19;5059707;28;20196;-79
2023/06/08 05:16:06;;;;;;;6.10;5.70;;;;;;;19.99;nan;99264.13;5064939;28;20727;-79
2023/06/08 05:18:33;;;;;;;5.77;5.37;;;;;;;20.04;nan;99261.34;5058087;28;20234;-79
2023/06/08 05:21:00;;;;;;;6.10;5.60;;;;;;;20.19;nan;99266.59;5065190;28;20181;-82
2023/06/08 05:23:27;;;;;;;6.17;5.77;;;;;;;20.35;nan;99267.22;5054737;28;20556;-80
2023/06/08 05:25:53;;;;;;;6.00;5.50;;;;;;;20.47;nan;99271.16;5056250;28;20644;-79
2023/06/08 05:28:20;;;;;;;6.10;5.60;;;;;;;20.56;nan;99277.56;5054586;28;20204;-79
2023/06/08 05:30:47;;;;;;;6.40;5.90;;;;;;;20.64;nan;99268.75;5053736;28;20673;-79
2023/06/08 05:33:14;;;;;;;5.80;5.40;;;;;;;20.76;nan;99268.31;5061238;28;20214;-79
2023/06/08 05:35:41;;;;;;;6.37;5.87;;;;;;;20.92;nan;99261.50;5058766;28;20188;-79
2023/06/08 05:38:08;;;;;;;6.40;5.90;;;;;;;21.08;nan;99273.00;5053956;28;20204;-79
2023/06/08 05:40:34;;;;;;;5.87;5.37;;;;;;;21.16;nan;99274.25;5059951;28;20193;-79
2023/06/08 05:43:01;;;;;;;6.40;5.90;;;;;;;21.26;nan;99282.25;5063396;28;20661;-79
2023/06/08 05:45:28;;;;;;;6.17;5.67;;;;;;;21.34;nan;99276.13;5063040;28;20221;-79
2023/06/08 05:47:55;;;;;;;5.70;5.30;;;;;;;21.32;nan;99283.81;5064411;28;20213;-81
2023/06/08 05:50:22;;;;;;;5.88;5.38;;;;;;;21.31;nan;99282.19;5055321;28;20216;-79
2023/06/08 05:52:48;;;;;;;7.10;6.47;;;;;;;21.40;nan;99280.38;5059713;28;20263;-79
2023/06/08 05:55:15;;;;;;;6.18;5.68;;;;;;;21.51;nan;99281.81;5054014;28;20254;-79
2023/06/08 05:57:42;;;;;;;6.60;6.10;;;;;;;21.79;nan;99278.03;5058953;28;20250;-79
2023/06/08 06:00:11;;;;;;;6.63;6.15;;;;;;;22.06;nan;99276.47;5066058;28;20648;-79
2023/06/08 06:02:40;;;;;;;5.95;5.55;;;;;;;22.35;nan;99274.19;5069749;28;20268;-80
2023/06/08 06:05:08;;;;;;;6.05;5.65;;;;;;;22.55;nan;99278.44;5067860;28;20675;-79
2023/06/08 06:07:36;;;;;;;6.10;5.60;;;;;;;22.76;nan;99279.63;5066566;28;20569;-79
2023/06/08 06:10:03;;;;;;;6.45;5.95;;;;;;;22.91;nan;99271.06;5059174;28;20221;-79
2023/06/08 06:12:30;;;;;;;6.43;5.93;;;;;;;22.84;nan;99273.44;5063625;28;20177;-79
2023/06/08 06:14:57;;;;;;;6.80;6.40;;;;;;;22.27;nan;99267.56;5067320;28;20208;-79
2023/06/08 06:17:24;;;;;;;7.10;6.43;;;;;;;22.21;nan;99274.22;5063241;28;20190;-79
2023/06/08 06:19:51;;;;;;;7.95;7.32;;;;;;;22.07;nan;99275.38;5066190;28;20201;-79
2023/06/08 06:22:20;;;;;;;7.80;7.10;;;;;;;22.30;nan;99274.34;5068329;28;20199;-79
2023/06/08 06:24:47;;;;;;;6.53;6.13;;;;;;;22.62;nan;99276.91;5066910;28;21061;-81
2023/06/08 06:27:14;;;;;;;7.40;6.75;;;;;;;23.04;nan;99274.88;5065873;28;20189;-80
2023/06/08 06:29:41;;;;;;;7.45;6.80;;;;;;;23.00;nan;99282.09;5061966;28;20694;-80
2023/06/08 06:32:08;;;;;;;7.18;6.57;;;;;;;23.39;nan;99282.19;5057836;28;20188;-81
2023/06/08 06:34:37;;;;;;;7.60;6.88;;;;;;;23.98;nan;99282.88;5056887;28;20200;-80
2023/06/08 06:37:04;;;;;;;8.23;7.45;;;;;;;24.12;nan;99286.31;5052945;28;20207;-79
2023/06/08 06:39:31;;;;;;;7.18;6.68;;;;;;;23.98;nan;99282.88;5049420;28;20237;-80
2023/06/08 06:41:58;;;;;;;7.63;7.03;;;;;;;24.14;nan;99276.63;5054716;28;20208;-80
2023/06/08 06:44:29;;;;;;;7.22;6.63;;;;;;;24.41;nan;99281.09;5049906;28;20225;-81
2023/06/08 06:46:56;;;;;;;7.53;7.03;;;;;;;24.54;nan;99279.34;5053455;28;20190;-80
2023/06/08 06:49:23;;;;;;;7.68;7.07;;;;;;;24.38;nan;99278.19;5048893;28;20208;-79
2023/06/08 06:51:50;;;;;;;8.50;7.63;;;;;;;24.13;nan;99268.72;5054605;28;20190;-80
2023/06/08 06:54:17;;;;;;;8.63;7.82;;;;;;;23.81;nan;99271.84;5059708;28;20181;-80
2023/06/08 06:56:45;;;;;;;8.27;7.63;;;;;;;23.80;nan;99264.75;5059328;28;20233;-80
2023/06/08 06:59:12;;;;;;;7.97;7.38;;;;;;;23.59;nan;99261.75;5057441;28;20330;-79
2023/06/08 07:01:40;;;;;;;8.27;7.57;;;;;;;24.14;nan;99262.13;5056421;28;20197;-80
2023/06/08 07:04:07;;;;;;;8.95;8.10;;;;;;;24.52;nan;99265.16;5059827;28;20691;-80
2023/06/08 07:06:35;;;;;;;7.93;7.38;;;;;;;24.70;nan;99260.50;5055522;28;20277;-80
2023/06/08 07:09:04;;;;;;;8.60;7.90;;;;;;;24.90;nan;99259.91;5061298;28;20226;-80
2023/06/08 07:11:30;;;;;;;8.88;8.18;;;;;;;25.22;nan;99256.66;5058695;28;20230;-80
2023/06/08 07:13:57;;;;;;;9.57;8.77;;;;;;;24.70;nan;99255.03;5067074;28;20252;-80
2023/06/08 07:16:24;;;;;;;10.38;9.57;;;;;;;24.26;nan;99250.63;5060988;28;20189;-80
2023/06/08 07:18:53;;;;;;;9.40;8.70;;;;;;;24.84;nan;99242.78;5055276;28;20531;-79
2023/06/08 07:21:21;;;;;;;10.05;9.25;;;;;;;25.03;nan;99247.97;5056876;28;20203;-80
2023/06/08 07:23:50;;;;;;;10.32;9.52;;;;;;;24.91;nan;99253.31;5055323;28;20250;-80
2023/06/08 07:26:31;;;;;;;11.52;10.63;;;;;;;24.41;nan;99255.63;5054149;28;20204;-80
2023/06/08 07:28:59;;;;;;;11.30;10.40;;;;;;;24.35;nan;99249.53;5054044;28;20184;-79
2023/06/08 07:31:28;;;;;;;10.48;9.68;;;;;;;24.93;nan;99256.50;5054919;28;20218;-79
2023/06/08 07:33:56;;;;;;;10.68;9.88;;;;;;;24.98;nan;99257.16;5062309;28;20182;-79
2023/06/08 07:36:24;;;;;;;9.85;9.07;;;;;;;25.18;nan;99250.22;5063559;28;20201;-79
2023/06/08 07:38:50;;;;;;;10.48;9.48;;;;;;;25.53;nan;99252.88;5055900;28;20244;-79
2023/06/08 07:41:18;;;;;;;11.50;10.60;;;;;;;25.79;nan;99248.16;5056105;28;20200;-79
2023/06/08 07:43:45;;;;;;;13.45;12.35;;;;;;;25.53;nan;99250.13;5057757;28;20202;-79
2023/06/08 07:46:12;;;;;;;11.77;10.88;;;;;;;25.60;nan;99250.47;5053283;28;20192;-80
2023/06/08 07:48:39;;;;;;;12.77;11.77;;;;;;;26.07;nan;99245.75;5047662;28;20698;-79
2023/06/08 07:51:06;;;;;;;12.00;11.00;;;;;;;26.35;nan;99251.59;5063267;28;20208;-80
2023/06/08 07:53:36;;;;;;;12.80;11.70;;;;;;;26.54;nan;99251.97;5057631;28;20250;-79
2023/06/08 07:56:03;;;;;;;12.88;11.80;;;;;;;26.89;nan;99247.03;5073870;28;20193;-79
2023/06/08 07:58:31;;;;;;;12.68;11.65;;;;;;;26.91;nan;99244.75;5070924;28;20243;-79
2023/06/08 08:00:58;;;;;;;13.07;11.98;;;;;;;26.89;nan;99245.06;5067623;28;20238;-79
2023/06/08 08:03:25;;;;;;;12.25;11.20;;;;;;;27.31;nan;99251.31;5055151;28;20202;-79
2023/06/08 08:05:52;;;;;;;12.63;11.52;;;;;;;27.53;nan;99241.88;5061643;28;20184;-80
2023/06/08 08:08:19;;;;;;;12.23;11.23;;;;;;;27.42;nan;99247.00;5057442;28;20700;-79
2023/06/08 08:10:47;;;;;;;12.82;11.65;;;;;;;27.76;nan;99245.84;5061477;28;20687;-79
2023/06/08 08:13:14;;;;;;;12.90;11.88;;;;;;;27.80;nan;99246.75;5064210;28;20204;-79
2023/06/08 08:15:40;;;;;;;12.63;11.63;;;;;;;27.93;nan;99250.31;5066367;28;20189;-82
2023/06/08 08:18:07;;;;;;;12.60;11.60;;;;;;;28.19;nan;99256.31;5064405;28;20196;-81
2023/06/08 08:20:34;;;;;;;11.95;10.95;;;;;;;28.41;nan;99249.53;5055045;28;20190;-82
2023/06/08 08:23:01;;;;;;;13.40;12.30;;;;;;;28.58;nan;99243.75;5053766;28;20186;-82
2023/06/08 08:25:28;;;;;;;12.63;11.63;;;;;;;28.62;nan;99249.38;5036453;28;20649;-81
2023/06/08 08:27:55;;;;;;;12.88;11.82;;;;;;;28.88;nan;99256.09;5053769;28;20213;-82
2023/06/08 08:30:22;;;;;;;13.20;12.13;;;;;;;28.31;nan;99250.00;5061559;28;20716;-82
2023/06/08 08:32:49;;;;;;;13.50;12.50;;;;;;;26.63;nan;99255.44;5059638;28;20664;-82
2023/06/08 08:35:16;;;;;;;13.52;12.32;;;;;;;26.84;nan;99253.50;5062115;28;20178;-82
2023/06/08 08:37:43;;;;;;;13.35;12.18;;;;;;;27.02;nan;99244.00;5055139;28;20185;-83
2023/06/08 08:40:11;;;;;;;13.63;12.43;;;;;;;26.54;nan;99261.00;5071562;28;20187;-83
2023/06/08 08:42:44;;;;;;;13.80;12.60;;;;;;;26.21;nan;99247.16;5062718;28;20561;-81
2023/06/08 08:45:13;;;;;;;12.77;11.73;;;;;;;27.17;nan;99240.63;5037307;28;20197;-81
2023/06/08 08:47:41;;;;;;;12.98;11.90;;;;;;;27.72;nan;99250.41;5055267;28;20553;-81
2023/06/08 08:50:16;;;;;;;13.68;12.60;;;;;;;27.86;nan;99255.56;5060467;28;20189;-81
2023/06/08 08:52:48;;;;;;;13.93;12.70;;;;;;;27.57;nan;99262.91;5035697;28;20194;-80
2023/06/08 08:55:16;;;;;;;12.48;11.38;;;;;;;27.77;nan;99241.94;5057001;28;20281;-81
2023/06/08 08:58:03;;;;;;;11.90;10.98;;;;;;;27.99;nan;99248.97;5040445;28;20577;-81
2023/06/08 09:00:31;;;;;;;11.25;10.25;;;;;;;28.39;nan;99246.31;5038736;28;20683;-80
2023/06/08 09:03:00;;;;;;;13.57;12.35;;;;;;;27.65;nan;99250.19;5068812;28;20182;-82
2023/06/08 09:05:27;;;;;;;13.23;12.20;;;;;;;25.99;nan;99241.91;5032038;28;20194;-81
2023/06/08 09:07:57;;;;;;;13.75;12.55;;;;;;;26.71;nan;99247.13;5031985;28;20241;-82
2023/06/08 09:10:25;;;;;;;12.63;11.63;;;;;;;26.98;nan;99236.75;5031721;28;20603;-81
2023/06/08 09:12:56;;;;;;;13.10;12.05;;;;;;;26.98;nan;99254.06;5033102;28;20555;-81
2023/06/08 09:15:34;;;;;;;13.93;12.60;;;;;;;26.98;nan;99239.50;5033023;28;20229;-81
2023/06/08 09:18:15;;;;;;;12.43;11.38;;;;;;;27.61;nan;99237.44;5037526;28;20233;-82
2023/06/08 09:20:42;;;;;;;10.75;9.85;;;;;;;28.22;nan;99241.06;5035360;28;20295;-80
2023/06/08 09:23:18;;;;;;;12.32;11.20;;;;;;;27.94;nan;99232.66;5018567;28;20197;-81
2023/06/08 09:25:46;;;;;;;10.45;9.60;;;;;;;28.36;nan;99230.50;5059567;28;20193;-81
2023/06/08 09:28:14;;;;;;;10.73;9.90;;;;;;;28.28;nan;99226.69;5050322;28;20197;-81
2023/06/08 09:30:43;;;;;;;11.68;10.73;;;;;;;28.52;nan;99222.28;5063026;28;20209;-81
2023/06/08 09:33:20;;;;;;;10.57;9.85;;;;;;;28.55;nan;99219.66;5057419;28;20187;-80
2023/06/08 09:36:08;;;;;;;11.23;10.32;;;;;;;28.23;nan;99221.41;5057043;28;20643;-81
2023/06/08 09:38:35;;;;;;;10.20;9.48;;;;;;;28.47;nan;99215.06;5056445;28;20205;-81
2023/06/08 09:41:22;;;;;;;10.25;9.45;;;;;;;29.11;nan;99211.44;5047833;28;20545;-82
2023/06/08 09:43:50;;;;;;;10.30;9.50;;;;;;;29.56;nan;99203.59;5049175;28;20190;-82
2023/06/08 09:46:33;;;;;;;11.10;10.18;;;;;;;29.97;nan;99209.75;5047785;28;20186;-83
2023/06/08 09:49:01;;;;;;;9.85;9.05;;;;;;;29.85;nan;99201.56;5054465;28;20571;-81
2023/06/08 09:51:28;;;;;;;9.80;9.05;;;;;;;30.20;nan;99199.66;5038672;28;20206;-81
2023/06/08 09:53:57;;;;;;;11.85;10.82;;;;;;;29.63;nan;99181.69;5040553;28;20212;-81
2023/06/08 09:56:26;;;;;;;12.75;11.80;;;;;;;29.00;nan;99191.84;5042332;28;20186;-81
2023/06/08 09:58:56;;;;;;;10.02;9.32;;;;;;;29.71;nan;99194.53;5042702;28;20190;-81
2023/06/08 10:01:40;;;;;;;11.38;10.48;;;;;;;29.19;nan;99196.69;5043379;28;20193;-82
2023/06/08 10:04:31;;;;;;;12.02;11.13;;;;;;;28.75;nan;99196.63;5040199;28;20689;-82
2023/06/08 10:07:05;;;;;;;10.55;9.75;;;;;;;29.67;nan;99193.66;5039764;28;20198;-81
2023/06/08 10:09:36;;;;;;;10.60;9.60;;;;;;;30.21;nan;99195.72;5046040;28;20222;-83
2023/06/08 10:12:03;;;;;;;9.93;9.20;;;;;;;30.41;nan;99189.09;5049249;28;20240;-83
2023/06/08 10:14:31;;;;;;;11.55;10.68;;;;;;;28.60;nan;99188.31;5020131;28;20193;-82
2023/06/08 10:16:58;;;;;;;10.30;9.50;;;;;;;29.47;nan;99182.84;5044127;28;20193;-83
2023/06/08 10:19:25;;;;;;;10.77;9.88;;;;;;;30.16;nan;99174.72;5040005;28;20190;-82
2023/06/08 10:21:52;;;;;;;11.27;10.32;;;;;;;30.82;nan;99167.44;5031134;28;20201;-83
2023/06/08 10:24:22;;;;;;;10.30;9.50;;;;;;;31.25;nan;99156.06;5038723;28;20209;-83
2023/06/08 10:26:50;;;;;;;11.77;10.77;;;;;;;31.86;nan;99168.97;5032319;28;20194;-82
2023/06/08 10:29:17;;;;;;;10.20;9.40;;;;;;;32.08;nan;99161.78;5031887;28;20186;-82
2023/06/08 10:31:49;;;;;;;11.23;10.43;;;;;;;30.72;nan;99152.25;5027334;28;20558;-82
2023/06/08 10:34:19;;;;;;;11.55;10.45;;;;;;;31.15;nan;99153.88;5048692;28;20216;-82
2023/06/08 10:36:46;;;;;;;10.18;9.27;;;;;;;31.44;nan;99157.97;5052157;28;20177;-81
2023/06/08 10:39:15;;;;;;;10.18;9.48;;;;;;;31.26;nan;99149.31;5051977;28;20534;-82
2023/06/08 10:41:52;;;;;;;9.23;8.52;;;;;;;31.48;nan;99154.09;5051755;28;20195;-82
2023/06/08 10:44:31;;;;;;;8.82;8.13;;;;;;;31.01;nan;99142.56;5034506;28;20265;-81
2023/06/08 10:47:05;;;;;;;8.52;7.93;;;;;;;30.77;nan;99146.41;5061569;28;20192;-81
2023/06/08 10:49:34;;;;;;;7.55;6.80;;;;;;;29.35;nan;99141.56;5048870;28;20201;-82
2023/06/08 10:52:02;;;;;;;7.68;7.07;;;;;;;28.53;nan;99143.97;5043282;28;20673;-81
2023/06/08 10:54:30;;;;;;;7.65;7.05;;;;;;;29.77;nan;99137.06;5056747;28;20208;-81
2023/06/08 10:57:00;;;;;;;7.82;7.13;;;;;;;30.00;nan;99132.50;5053909;28;20217;-82
2023/06/08 10:59:40;;;;;;;7.25;6.75;;;;;;;30.95;nan;99128.19;5057094;28;20243;-81
2023/06/08 11:02:07;;;;;;;8.15;7.55;;;;;;;30.22;nan;99139.31;5055207;28;20189;-80
2023/06/08 11:04:34;;;;;;;8.75;8.05;;;;;;;28.83;nan;99137.00;5055100;28;20231;-83
2023/06/08 11:07:06;;;;;;;8.10;7.50;;;;;;;30.08;nan;99128.75;5054435;28;20672;-82
2023/06/08 11:09:34;;;;;;;9.13;8.27;;;;;;;29.85;nan;99133.31;5061875;28;20573;-80
2023/06/08 11:12:01;;;;;;;7.63;7.03;;;;;;;30.80;nan;99126.31;5055081;28;20201;-80
2023/06/08 11:14:27;;;;;;;8.57;7.97;;;;;;;30.60;nan;99124.75;5055114;28;20255;-80
2023/06/08 11:16:55;;;;;;;8.32;7.63;;;;;;;31.01;nan;99121.22;5056530;28;20197;-80
2023/06/08 11:19:23;;;;;;;10.02;9.32;;;;;;;31.30;nan;99124.50;5074115;28;20180;-80
2023/06/08 11:21:53;;;;;;;11.05;10.00;;;;;;;30.81;nan;99121.59;5070596;28;20197;-80
2023/06/08 11:24:27;;;;;;;9.65;8.85;;;;;;;30.49;nan;99110.72;5059317;28;20264;-78
2023/06/08 11:27:00;;;;;;;9.15;8.45;;;;;;;30.75;nan;99109.25;5056872;28;20568;-79
2023/06/08 11:29:30;;;;;;;8.43;7.82;;;;;;;30.95;nan;99105.25;5052770;28;20216;-78
2023/06/08 11:32:10;;;;;;;8.23;7.53;;;;;;;31.16;nan;99108.47;5059093;28;20285;-79
2023/06/08 11:34:37;;;;;;;8.55;7.95;;;;;;;30.83;nan;99105.44;5052224;28;20227;-78
2023/06/08 11:37:04;;;;;;;8.63;7.95;;;;;;;29.88;nan;99098.66;5051583;28;20193;-78
2023/06/08 11:39:33;;;;;;;8.35;7.65;;;;;;;29.90;nan;99101.91;5053575;28;20648;-78
2023/06/08 11:42:00;;;;;;;14.32;8.85;;;;;;;28.05;nan;99096.13;5052502;28;20200;-80
2023/06/08 11:44:27;;;;;;;10.27;9.50;;;;;;;27.99;nan;99103.84;5059502;28;20190;-79
2023/06/08 11:46:54;;;;;;;10.60;9.80;;;;;;;27.25;nan;99100.63;5044934;28;20188;-79
2023/06/08 11:49:21;;;;;;;9.70;8.80;;;;;;;27.41;nan;99093.28;5063688;28;20217;-79